Time;durP1;ratioP1;P1;durP2;ratioP2;P2;SDS_P1;SDS_P2;PMS_P1;PMS_P2;Temp;Humidity;BMP_temperature;BMP_pressure;BME280_temperature;BME280_humidity;BME280_pressure;Samples;Min_cycle;Max_cycle;Signal;HPM_P1;HPM_P2
2023/10/09 00:00:50;;;;;;;13.68;5.10;;;20.50;78.60;;;;;;5086523;28;20032;-75
2023/10/09 00:03:18;;;;;;;15.45;5.20;;;20.60;78.20;;;;;;5091604;28;20039;-74
2023/10/09 00:05:46;;;;;;;15.52;5.00;;;20.60;78.30;;;;;;5074120;28;20051;-76
2023/10/09 00:08:54;;;;;;;13.82;4.97;;;20.50;78.80;;;;;;5091772;28;20032;-75
2023/10/09 00:11:17;;;;;;;13.18;5.40;;;20.40;79.20;;;;;;5085905;28;20040;-74
2023/10/09 00:13:49;;;;;;;17.33;5.28;;;20.40;79.20;;;;;;5091919;28;20063;-75
2023/10/09 00:16:23;;;;;;;10.90;5.15;;;20.50;79.30;;;;;;5073819;28;20048;-74
2023/10/09 00:18:51;;;;;;;17.80;6.20;;;20.50;79.60;;;;;;5088713;28;20032;-74
2023/10/09 00:21:23;;;;;;;17.23;5.40;;;20.50;79.30;;;;;;5092070;28;20062;-75
2023/10/09 00:23:55;;;;;;;16.35;5.13;;;20.50;79.50;;;;;;5091755;28;20036;-75
2023/10/09 00:26:23;;;;;;;15.02;5.57;;;20.50;79.50;;;;;;5092266;28;20047;-76
2023/10/09 00:28:51;;;;;;;15.13;5.90;;;20.40;80.00;;;;;;5091151;28;20489;-75
2023/10/09 00:31:33;;;;;;;15.02;5.80;;;20.40;80.40;;;;;;5073767;28;20044;-75
2023/10/09 00:34:15;;;;;;;18.13;5.50;;;20.40;80.70;;;;;;5086227;28;20481;-75
2023/10/09 00:36:50;;;;;;;18.65;5.80;;;20.50;80.80;;;;;;5072048;28;20488;-75
2023/10/09 00:42:06;;;;;;;18.38;6.25;;;20.60;80.60;;;;;;5084845;28;20051;-74
2023/10/09 00:44:41;;;;;;;19.63;5.60;;;20.50;80.80;;;;;;5072207;28;20408;-75
2023/10/09 00:47:33;;;;;;;15.73;5.40;;;20.50;81.20;;;;;;5090654;28;20032;-74
2023/10/09 00:52:51;;;;;;;9.45;5.05;;;20.30;82.10;;;;;;5089844;28;20393;-75
2023/10/09 00:55:38;;;;;;;13.82;5.22;;;20.20;82.50;;;;;;5090240;28;20032;-75
2023/10/09 00:58:12;;;;;;;11.80;5.65;;;20.10;83.10;;;;;;5088382;28;20144;-76
2023/10/09 01:05:57;;;;;;;14.65;5.78;;;20.10;84.30;;;;;;5071592;28;20059;-74
2023/10/09 01:08:30;;;;;;;14.38;5.28;;;20.10;84.80;;;;;;5068515;28;20044;-75
2023/10/09 01:11:14;;;;;;;11.43;5.35;;;20.00;85.20;;;;;;5086608;28;20071;-75
2023/10/09 01:13:52;;;;;;;14.88;5.35;;;19.90;85.70;;;;;;5082064;28;20059;-74
2023/10/09 01:16:23;;;;;;;11.70;5.20;;;20.00;86.30;;;;;;5072538;28;20039;-73
2023/10/09 01:18:51;;;;;;;;;;;20.00;86.50;;;;;;5072197;28;20131;-74
2023/10/09 01:21:31;;;;;;;11.23;4.50;;;19.90;87.10;;;;;;5091283;28;20063;-75
2023/10/09 01:24:08;;;;;;;;;;;19.90;87.40;;;;;;5091139;28;20032;-75
2023/10/09 01:26:47;;;;;;;18.38;4.85;;;19.90;88.00;;;;;;5068172;28;19924;-75
2023/10/09 01:29:19;;;;;;;16.40;5.13;;;20.00;88.30;;;;;;5070544;28;20059;-75
2023/10/09 01:31:54;;;;;;;11.13;5.28;;;19.90;88.60;;;;;;5086494;28;20062;-75
2023/10/09 01:37:28;;;;;;;11.30;4.93;;;19.90;88.80;;;;;;5070274;28;20048;-74
2023/10/09 01:39:59;;;;;;;11.77;5.05;;;19.90;89.20;;;;;;5085832;28;20040;-77
2023/10/09 01:42:44;;;;;;;15.77;4.82;;;19.90;89.50;;;;;;5068384;28;20502;-74
2023/10/09 01:47:51;;;;;;;11.20;4.95;;;20.00;89.90;;;;;;5090085;28;20036;-75
2023/10/09 01:50:22;;;;;;;12.98;4.72;;;20.00;89.80;;;;;;5053716;28;20071;-76
2023/10/09 01:52:51;;;;;;;12.35;4.85;;;20.10;90.00;;;;;;5089728;28;20040;-76
2023/10/09 02:00:49;;;;;;;12.50;5.03;;;20.10;90.20;;;;;;5089638;28;20050;-72
2023/10/09 02:03:23;;;;;;;11.73;4.47;;;20.10;90.50;;;;;;5086064;28;20289;-73
2023/10/09 02:06:03;;;;;;;11.90;4.40;;;20.00;90.60;;;;;;5071990;28;20044;-73
2023/10/09 02:08:35;;;;;;;13.82;4.68;;;20.10;90.70;;;;;;5086446;28;20467;-72
2023/10/09 02:11:02;;;;;;;9.02;4.38;;;20.00;90.90;;;;;;5048828;28;20649;-73
2023/10/09 02:13:31;;;;;;;13.80;4.60;;;20.00;91.10;;;;;;5085744;28;20039;-74
2023/10/09 02:16:13;;;;;;;10.65;4.75;;;20.10;91.10;;;;;;5087693;28;20040;-74
2023/10/09 02:19:08;;;;;;;7.85;4.60;;;20.10;91.30;;;;;;5086728;28;20521;-73
2023/10/09 02:21:53;;;;;;;12.57;5.03;;;19.90;91.80;;;;;;5089821;28;20040;-76
2023/10/09 02:24:41;;;;;;;8.20;4.40;;;19.90;91.90;;;;;;5069899;28;20404;-77
2023/10/09 02:27:06;;;;;;;13.05;4.60;;;19.90;92.20;;;;;;5084602;28;20043;-76
2023/10/09 02:29:38;;;;;;;18.88;5.28;;;19.90;92.30;;;;;;5086889;28;20093;-74
2023/10/09 02:32:16;;;;;;;11.05;5.32;;;19.80;92.60;;;;;;5071606;28;20468;-75
2023/10/09 02:34:46;;;;;;;11.13;4.70;;;19.80;92.70;;;;;;5089448;28;20055;-75
2023/10/09 02:37:13;;;;;;;10.87;5.40;;;19.80;92.90;;;;;;5086294;28;20086;-76
2023/10/09 02:39:47;;;;;;;8.25;4.30;;;19.70;93.20;;;;;;5070879;28;20040;-74
2023/10/09 02:42:23;;;;;;;9.35;4.82;;;19.70;93.30;;;;;;5089581;28;20051;-75
2023/10/09 02:44:51;;;;;;;9.00;5.28;;;19.70;93.30;;;;;;5070968;28;20044;-75
2023/10/09 02:47:29;;;;;;;10.13;4.63;;;19.80;93.40;;;;;;5071537;28;20670;-75
2023/10/09 02:50:06;;;;;;;20.63;5.38;;;19.70;93.50;;;;;;5085880;28;20093;-75
2023/10/09 02:52:40;;;;;;;11.35;4.30;;;19.70;93.60;;;;;;5085954;28;20460;-75
2023/10/09 02:55:13;;;;;;;10.57;4.65;;;19.70;93.70;;;;;;5089268;28;20068;-73
2023/10/09 02:57:41;;;;;;;18.33;5.13;;;19.80;93.60;;;;;;5070581;28;20090;-73
2023/10/09 03:00:18;;;;;;;15.13;5.60;;;19.80;93.70;;;;;;5069095;28;20112;-74
2023/10/09 03:02:49;;;;;;;10.00;4.90;;;19.70;94.00;;;;;;5054387;28;20044;-74
2023/10/09 03:05:18;;;;;;;11.98;5.13;;;19.70;94.20;;;;;;5089506;28;20043;-74
2023/10/09 03:07:45;;;;;;;13.52;5.95;;;19.80;94.30;;;;;;5088959;28;20042;-74
2023/10/09 03:10:12;;;;;;;14.40;5.10;;;19.80;94.40;;;;;;5089139;28;20036;-74
2023/10/09 03:12:43;;;;;;;13.93;5.70;;;19.80;94.50;;;;;;5070661;28;20032;-73
2023/10/09 03:15:11;;;;;;;;;;;19.80;94.60;;;;;;5089803;28;20036;-75
2023/10/09 03:17:38;;;;;;;10.93;4.68;;;19.70;94.80;;;;;;5070510;28;19931;-74
2023/10/09 03:20:12;;;;;;;14.93;5.95;;;19.80;94.70;;;;;;5089531;28;20396;-74
2023/10/09 03:22:40;;;;;;;14.20;5.22;;;19.70;94.90;;;;;;5088962;28;20157;-75
2023/10/09 03:25:11;;;;;;;13.75;5.82;;;19.70;95.00;;;;;;5089112;28;20032;-75
2023/10/09 03:27:47;;;;;;;12.82;5.43;;;19.80;94.90;;;;;;5088413;28;20170;-74
2023/10/09 03:30:16;;;;;;;13.98;5.40;;;19.80;95.00;;;;;;5088555;28;20040;-74
2023/10/09 03:32:50;;;;;;;10.15;5.32;;;19.80;95.00;;;;;;5089093;28;20513;-74
2023/10/09 03:35:25;;;;;;;11.50;5.47;;;19.70;95.10;;;;;;5090744;28;20047;-76
2023/10/09 03:38:11;;;;;;;10.57;4.95;;;19.70;95.30;;;;;;5073966;28;20084;-74
2023/10/09 03:40:43;;;;;;;11.77;5.93;;;19.60;95.60;;;;;;5072130;28;20136;-73
2023/10/09 03:43:11;;;;;;;12.25;5.03;;;19.60;95.60;;;;;;5067769;28;20037;-73
2023/10/09 03:45:45;;;;;;;12.98;5.22;;;19.70;95.70;;;;;;5062174;28;20039;-74
2023/10/09 03:48:20;;;;;;;12.48;5.57;;;19.60;95.70;;;;;;5067456;28;20041;-75
2023/10/09 03:50:48;;;;;;;14.85;4.90;;;19.50;96.00;;;;;;5061686;28;20041;-76
2023/10/09 03:53:16;;;;;;;12.77;5.00;;;19.60;96.10;;;;;;5066562;28;20112;-76
2023/10/09 03:55:43;;;;;;;14.93;5.25;;;19.50;96.20;;;;;;5070159;28;20456;-77
2023/10/09 03:58:14;;;;;;;12.38;4.82;;;19.50;96.50;;;;;;5064658;28;20049;-78
2023/10/09 04:00:45;;;;;;;16.48;5.03;;;19.60;96.50;;;;;;5046973;28;20495;-74
2023/10/09 04:03:14;;;;;;;10.90;4.30;;;19.60;96.40;;;;;;5071625;28;20032;-78
2023/10/09 04:05:43;;;;;;;8.50;3.78;;;19.40;96.20;;;;;;5053844;28;20049;-76
2023/10/09 04:08:21;;;;;;;9.32;3.95;;;19.40;96.30;;;;;;5071546;28;20111;-76
2023/10/09 04:10:51;;;;;;;9.95;4.38;;;19.30;96.40;;;;;;5063931;28;20059;-74
2023/10/09 04:13:25;;;;;;;8.98;4.03;;;19.30;96.60;;;;;;5070452;28;20080;-77
2023/10/09 04:15:53;;;;;;;9.48;5.13;;;19.20;96.70;;;;;;5060698;28;20436;-75
2023/10/09 04:18:27;;;;;;;7.40;3.92;;;19.20;96.80;;;;;;5062894;28;20036;-73
2023/10/09 04:26:29;;;;;;;11.68;4.45;;;19.00;97.40;;;;;;5067377;28;20041;-73
2023/10/09 04:28:56;;;;;;;12.82;4.25;;;19.00;97.40;;;;;;5071100;28;20120;-73
2023/10/09 04:31:31;;;;;;;7.13;4.20;;;19.00;97.50;;;;;;5065279;28;20042;-75
2023/10/09 04:36:49;;;;;;;7.35;4.53;;;18.90;97.80;;;;;;5060826;28;20121;-76
2023/10/09 04:39:36;;;;;;;9.93;4.43;;;18.90;97.90;;;;;;5051848;28;20044;-73
2023/10/09 04:47:37;;;;;;;7.72;4.63;;;18.80;98.40;;;;;;5080692;28;20032;-76
2023/10/09 04:50:36;;;;;;;7.95;4.70;;;18.60;98.70;;;;;;5088569;28;20365;-74
2023/10/09 04:55:54;;;;;;;11.18;4.57;;;18.30;99.70;;;;;;5088817;28;20478;-73
2023/10/09 04:58:25;;;;;;;8.90;4.57;;;18.10;99.90;;;;;;5090585;28;20519;-73
2023/10/09 05:09:12;;;;;;;7.10;5.00;;;18.30;99.90;;;;;;5021414;28;20140;-73
2023/10/09 05:11:59;;;;;;;27.90;17.27;;;18.10;99.90;;;;;;5076079;28;20123;-74
2023/10/09 05:14:39;;;;;;;21.10;13.52;;;18.10;99.90;;;;;;5076489;28;20369;-76
2023/10/09 05:17:06;;;;;;;49.63;27.70;;;18.00;99.90;;;;;;5079982;28;20029;-74
2023/10/09 05:19:41;;;;;;;104.30;57.40;;;18.10;99.90;;;;;;5083268;28;20043;-75
2023/10/09 05:22:36;;;;;;;58.95;34.40;;;18.10;99.90;;;;;;5079706;28;20032;-74
2023/10/09 05:25:01;;;;;;;15.10;7.60;;;18.20;99.80;;;;;;5086514;28;20049;-73
2023/10/09 05:27:50;;;;;;;12.70;6.43;;;18.30;99.80;;;;;;5086441;28;20036;-74
2023/10/09 05:30:27;;;;;;;12.00;6.40;;;18.20;99.80;;;;;;5087900;28;20036;-75
2023/10/09 05:32:58;;;;;;;10.43;7.05;;;18.30;99.80;;;;;;5082406;28;20503;-74
2023/10/09 05:36:05;;;;;;;13.35;5.95;;;18.20;99.90;;;;;;5070160;28;20380;-73
2023/10/09 05:38:23;;;;;;;11.43;5.97;;;18.20;99.90;;;;;;5087532;28;20032;-73
2023/10/09 05:41:04;;;;;;;9.70;6.07;;;18.10;99.90;;;;;;5088587;28;20136;-74
2023/10/09 05:46:17;;;;;;;18.08;7.85;;;18.10;99.90;;;;;;5082477;28;20044;-76
2023/10/09 05:48:54;;;;;;;14.23;7.25;;;18.00;99.90;;;;;;5087150;28;20435;-76
2023/10/09 06:03:23;;;;;;;8.07;5.97;;;17.70;99.90;;;;;;5001000;28;20049;-75
2023/10/09 06:05:40;;;;;;;12.13;6.50;;;17.70;99.90;;;;;;4991216;28;20121;-75
2023/10/09 06:08:09;;;;;;;10.45;6.13;;;17.70;99.90;;;;;;5062080;28;20539;-74
2023/10/09 06:10:41;;;;;;;13.77;7.05;;;17.70;99.90;;;;;;5097912;28;20047;-76
2023/10/09 06:13:37;;;;;;;13.85;6.15;;;17.70;99.90;;;;;;5090687;28;20375;-74
2023/10/09 06:18:53;;;;;;;8.52;5.97;;;17.90;99.80;;;;;;5083677;28;20106;-77
2023/10/09 06:21:39;;;;;;;14.27;6.63;;;18.00;99.50;;;;;;5087967;28;20410;-75
2023/10/09 06:26:37;;;;;;;12.57;6.13;;;17.90;99.40;;;;;;5089254;28;20400;-76
2023/10/09 06:29:30;;;;;;;10.35;6.45;;;18.00;99.20;;;;;;5081502;28;20032;-76
2023/10/09 06:31:58;;;;;;;13.40;6.28;;;18.10;99.00;;;;;;5070105;28;20040;-75
2023/10/09 06:34:35;;;;;;;13.95;5.78;;;18.10;99.10;;;;;;5088890;28;20057;-76
2023/10/09 06:38:21;;;;;;;8.75;5.75;;;18.00;98.90;;;;;;5085701;28;20036;-75
2023/10/09 06:45:04;;;;;;;10.25;5.70;;;18.10;98.60;;;;;;5088778;28;20047;-77
2023/10/09 06:47:41;;;;;;;12.05;5.70;;;18.20;98.50;;;;;;5085405;28;20051;-76
2023/10/09 06:50:24;;;;;;;8.45;5.55;;;18.20;98.10;;;;;;5071862;28;20369;-76
2023/10/09 06:55:48;;;;;;;8.70;5.35;;;18.30;97.90;;;;;;5063525;28;20753;-76
2023/10/09 06:58:23;;;;;;;9.45;5.45;;;18.30;97.60;;;;;;5085008;28;20044;-75
2023/10/09 07:03:29;;;;;;;7.90;5.32;;;18.20;97.60;;;;;;5088958;28;20059;-76
2023/10/09 07:06:25;;;;;;;;;;;18.20;97.50;;;;;;5089279;28;20083;-75
2023/10/09 07:24:57;;;;;;;9.18;5.03;;;18.40;96.50;;;;;;5060813;28;20067;-74
2023/10/09 07:27:43;;;;;;;7.97;4.75;;;18.30;96.70;;;;;;5100281;28;20119;-74
2023/10/09 07:33:16;;;;;;;10.73;5.05;;;18.40;96.50;;;;;;5097599;28;20059;-76
2023/10/09 07:38:30;;;;;;;9.68;5.07;;;18.50;96.30;;;;;;5089499;28;20394;-77
2023/10/09 07:43:39;;;;;;;11.95;5.28;;;18.60;96.00;;;;;;5082111;28;20132;-74
2023/10/09 07:48:53;;;;;;;18.60;5.32;;;18.90;95.40;;;;;;5085586;28;20389;-74
2023/10/09 07:51:30;;;;;;;7.05;4.55;;;19.10;95.00;;;;;;5089855;28;20043;-75
2023/10/09 07:54:09;;;;;;;7.35;4.57;;;19.20;94.90;;;;;;5081476;28;20036;-77
2023/10/09 07:56:45;;;;;;;8.50;4.70;;;19.40;94.50;;;;;;5088555;28;20057;-76
2023/10/09 07:59:14;;;;;;;13.32;5.00;;;19.50;94.40;;;;;;5066383;28;20060;-77
2023/10/09 08:02:05;;;;;;;10.38;4.60;;;19.70;93.90;;;;;;5091644;28;20401;-77
2023/10/09 08:04:48;;;;;;;10.05;4.72;;;19.80;93.60;;;;;;5098938;28;20047;-76
2023/10/09 08:07:19;;;;;;;8.00;4.40;;;19.80;93.40;;;;;;5086394;28;20106;-75
2023/10/09 08:12:57;;;;;;;8.23;4.32;;;19.80;93.30;;;;;;5065481;28;20160;-76
2023/10/09 08:15:51;;;;;;;8.68;4.50;;;19.90;93.20;;;;;;5083727;28;20511;-75
2023/10/09 08:18:27;;;;;;;12.63;4.30;;;20.00;92.70;;;;;;5087329;28;20116;-77
2023/10/09 08:23:48;;;;;;;7.63;4.60;;;20.10;92.60;;;;;;5067468;28;20083;-76
2023/10/09 08:26:28;;;;;;;6.93;4.95;;;20.20;92.40;;;;;;5090945;28;20440;-76
2023/10/09 08:29:15;;;;;;;8.38;4.00;;;20.20;92.00;;;;;;5041183;28;20051;-79
2023/10/09 08:31:46;;;;;;;9.00;4.25;;;20.10;92.10;;;;;;5077525;28;20036;-76
2023/10/09 08:34:26;;;;;;;;;;;20.40;91.90;;;;;;5081045;28;20395;-76
2023/10/09 08:36:56;;;;;;;6.28;3.65;;;20.40;91.50;;;;;;5077808;28;19927;-79
2023/10/09 08:39:26;;;;;;;8.27;4.20;;;20.40;91.30;;;;;;5054547;28;20058;-76
2023/10/09 08:42:02;;;;;;;7.43;4.13;;;20.60;91.20;;;;;;5054003;28;20461;-77
2023/10/09 08:44:34;;;;;;;9.32;4.07;;;20.80;90.70;;;;;;5070078;28;20048;-77
2023/10/09 08:47:02;;;;;;;14.45;4.60;;;21.00;90.40;;;;;;5063647;28;20029;-75
2023/10/09 08:49:33;;;;;;;6.07;3.88;;;21.00;90.10;;;;;;5068677;28;20049;-78
2023/10/09 08:52:03;;;;;;;7.50;4.10;;;21.00;90.00;;;;;;5049468;28;20480;-77
2023/10/09 08:54:33;;;;;;;8.68;3.83;;;21.10;89.60;;;;;;5064950;28;20040;-77
2023/10/09 08:57:01;;;;;;;9.75;4.20;;;21.30;89.40;;;;;;5043395;28;20507;-76
2023/10/09 08:59:28;;;;;;;9.43;4.05;;;21.50;88.20;;;;;;5040755;28;20132;-75
2023/10/09 09:01:59;;;;;;;8.00;4.88;;;21.40;87.40;;;;;;5062621;28;20044;-73
2023/10/09 09:04:41;;;;;;;9.00;4.07;;;21.40;87.70;;;;;;5045199;28;20135;-78
2023/10/09 09:07:31;;;;;;;8.07;3.60;;;21.60;87.00;;;;;;5063801;28;20488;-79
2023/10/09 09:10:21;;;;;;;5.47;3.75;;;21.70;85.20;;;;;;5062151;28;20492;-74
2023/10/09 09:13:00;;;;;;;6.95;3.47;;;21.80;84.70;;;;;;5064665;28;20821;-75
2023/10/09 09:15:28;;;;;;;6.85;3.83;;;21.70;84.40;;;;;;5066728;28;20045;-74
2023/10/09 09:18:18;;;;;;;8.35;3.85;;;21.70;84.20;;;;;;5066832;28;20855;-76
2023/10/09 09:20:46;;;;;;;6.38;3.28;;;21.70;83.70;;;;;;5065643;28;20032;-74
2023/10/09 09:23:13;;;;;;;7.97;4.15;;;21.60;83.30;;;;;;5066966;28;20543;-75
2023/10/09 09:25:59;;;;;;;8.88;4.05;;;21.90;83.00;;;;;;5058459;28;20032;-77
2023/10/09 09:28:26;;;;;;;7.18;3.75;;;22.00;82.70;;;;;;5068022;28;20503;-79
2023/10/09 09:31:13;;;;;;;8.63;3.67;;;22.10;82.30;;;;;;5069821;28;20047;-77
2023/10/09 09:33:43;;;;;;;6.57;3.92;;;22.20;81.80;;;;;;5046869;28;20127;-75
2023/10/09 09:36:11;;;;;;;6.07;3.45;;;22.20;81.80;;;;;;5069290;28;20043;-74
2023/10/09 09:38:42;;;;;;;5.70;3.58;;;22.60;80.70;;;;;;5066688;28;20072;-75
2023/10/09 09:41:09;;;;;;;5.57;3.42;;;22.60;81.40;;;;;;5076119;28;20131;-75
2023/10/09 09:43:40;;;;;;;7.32;3.20;;;23.00;79.80;;;;;;5082212;28;20056;-75
2023/10/09 09:46:11;;;;;;;4.97;3.25;;;23.30;78.30;;;;;;5085586;28;20036;-76
2023/10/09 09:48:45;;;;;;;8.20;3.35;;;23.00;77.90;;;;;;5084283;28;20044;-76
2023/10/09 09:51:14;;;;;;;5.30;3.20;;;23.00;77.20;;;;;;5085930;28;20427;-74
2023/10/09 09:53:46;;;;;;;6.17;3.10;;;23.10;77.50;;;;;;5089484;28;20518;-78
2023/10/09 09:56:18;;;;;;;5.43;3.22;;;23.40;76.80;;;;;;5065106;28;20333;-76
2023/10/09 09:58:53;;;;;;;5.60;2.80;;;23.10;76.90;;;;;;5085621;28;20063;-75
2023/10/09 10:01:26;;;;;;;7.70;3.90;;;23.30;74.60;;;;;;5085488;28;20538;-79
2023/10/09 10:04:13;;;;;;;13.13;7.78;;;23.30;75.40;;;;;;5086887;28;20402;-77
2023/10/09 10:06:45;;;;;;;11.10;4.18;;;23.60;74.40;;;;;;5062369;28;20050;-76
2023/10/09 10:09:39;;;;;;;7.70;3.33;;;23.90;73.80;;;;;;5085412;28;20042;-76
2023/10/09 10:12:10;;;;;;;16.67;3.30;;;24.20;73.20;;;;;;5085709;28;20032;-76
2023/10/09 10:14:58;;;;;;;9.35;3.25;;;24.00;71.40;;;;;;5080286;28;20036;-76
2023/10/09 10:17:30;;;;;;;5.68;2.90;;;23.90;71.00;;;;;;5087072;28;20040;-76
2023/10/09 10:22:50;;;;;;;7.88;3.03;;;23.90;70.80;;;;;;5085942;28;20036;-76
2023/10/09 10:25:32;;;;;;;5.75;2.70;;;24.00;70.90;;;;;;5088575;28;20109;-78
2023/10/09 10:28:17;;;;;;;6.05;3.00;;;24.20;70.20;;;;;;5086817;28;20036;-78
2023/10/09 10:30:50;;;;;;;7.90;3.17;;;24.00;70.30;;;;;;5086936;28;20452;-78
2023/10/09 10:33:22;;;;;;;7.57;2.90;;;23.80;70.70;;;;;;5071173;28;20051;-80
2023/10/09 10:38:38;;;;;;;7.53;4.22;;;24.50;68.60;;;;;;5071375;28;20047;-76
2023/10/09 10:41:12;;;;;;;6.63;3.72;;;24.70;68.00;;;;;;5089821;28;20044;-78
2023/10/09 10:46:30;;;;;;;7.88;3.65;;;24.30;67.80;;;;;;5092062;28;20032;-77
2023/10/09 10:51:39;;;;;;;7.55;3.17;;;24.30;67.10;;;;;;5085890;28;20050;-76
2023/10/09 10:56:57;;;;;;;26.95;3.60;;;25.00;66.00;;;;;;5087315;28;20039;-78
2023/10/09 10:59:25;;;;;;;6.57;3.25;;;25.20;66.70;;;;;;5064303;28;20098;-78
2023/10/09 11:12:42;;;;;;;9.63;3.33;;;25.30;64.40;;;;;;5066166;28;20412;-76
2023/10/09 11:18:07;;;;;;;10.52;3.30;;;25.30;64.20;;;;;;5091493;28;20043;-79
2023/10/09 11:20:36;;;;;;;7.45;3.60;;;25.10;63.70;;;;;;5082839;28;20040;-76
2023/10/09 11:25:52;;;;;;;6.80;3.03;;;26.30;63.30;;;;;;5091910;28;20044;-78
2023/10/09 11:28:31;;;;;;;7.07;3.70;;;29.30;58.60;;;;;;5052208;28;20499;-75
2023/10/09 11:31:11;;;;;;;6.00;3.10;;;30.70;56.70;;;;;;5089442;28;20044;-77
2023/10/09 11:33:51;;;;;;;;;;;31.00;54.10;;;;;;5072955;28;20426;-77
2023/10/09 11:36:31;;;;;;;7.55;2.70;;;31.40;53.00;;;;;;5071781;28;19920;-78
2023/10/09 11:39:18;;;;;;;6.15;2.45;;;31.70;52.80;;;;;;5049663;28;20055;-78
2023/10/09 11:41:49;;;;;;;6.65;2.40;;;32.20;49.60;;;;;;5090303;28;20044;-78
2023/10/09 11:44:23;;;;;;;6.85;2.97;;;29.50;51.00;;;;;;5072912;28;20047;-78
2023/10/09 11:46:58;;;;;;;6.78;3.08;;;27.50;54.00;;;;;;5090094;28;20383;-76
2023/10/09 11:49:32;;;;;;;5.35;2.92;;;26.90;55.20;;;;;;5087677;28;20119;-76
2023/10/09 11:54:36;;;;;;;9.88;3.28;;;26.40;56.80;;;;;;5092600;28;20423;-77
2023/10/09 11:57:28;;;;;;;7.47;2.70;;;26.30;57.50;;;;;;5089367;28;20142;-76
2023/10/09 11:59:57;;;;;;;8.85;3.75;;;26.30;56.80;;;;;;5074328;28;20595;-74
2023/10/09 12:02:43;;;;;;;10.32;4.30;;;26.50;57.20;;;;;;5091385;28;20024;-78
2023/10/09 12:05:16;;;;;;;8.80;4.95;;;26.50;56.40;;;;;;5069722;28;20044;-77
2023/10/09 12:07:54;;;;;;;9.65;3.97;;;26.60;56.50;;;;;;5085206;28;20028;-76
2023/10/09 12:10:25;;;;;;;5.57;2.70;;;26.80;55.50;;;;;;5086753;28;20508;-78
2023/10/09 12:12:53;;;;;;;5.82;3.08;;;26.60;55.70;;;;;;5090138;28;20443;-74
2023/10/09 12:15:21;;;;;;;6.70;2.60;;;26.80;55.70;;;;;;5086568;28;20040;-76
2023/10/09 12:17:49;;;;;;;7.32;2.78;;;27.10;55.40;;;;;;5088357;28;20047;-76
2023/10/09 12:20:32;;;;;;;6.30;2.75;;;27.20;54.50;;;;;;5072123;28;20409;-77
2023/10/09 12:23:00;;;;;;;5.97;2.88;;;27.10;54.80;;;;;;5090803;28;20031;-80
2023/10/09 12:25:31;;;;;;;7.68;4.32;;;27.10;54.50;;;;;;5082753;28;20052;-75
2023/10/09 12:28:04;;;;;;;5.82;2.83;;;27.30;54.60;;;;;;5084933;28;20058;-74
2023/10/09 12:30:39;;;;;;;7.88;3.42;;;27.30;54.30;;;;;;5073523;28;20114;-78
2023/10/09 12:33:08;;;;;;;7.03;2.90;;;27.50;54.10;;;;;;5071863;28;20488;-74
2023/10/09 12:35:47;;;;;;;7.47;3.10;;;27.80;54.50;;;;;;5089910;28;20060;-74
2023/10/09 12:38:31;;;;;;;8.18;2.67;;;28.40;54.70;;;;;;5088775;28;20118;-74
2023/10/09 12:41:08;;;;;;;5.68;2.55;;;27.70;54.10;;;;;;5080095;28;20452;-74
2023/10/09 12:43:39;;;;;;;8.68;3.10;;;27.50;54.00;;;;;;5071254;28;20047;-75
2023/10/09 12:46:16;;;;;;;6.05;2.70;;;27.30;55.60;;;;;;5066927;28;20446;-74
2023/10/09 12:48:46;;;;;;;7.97;2.75;;;27.50;54.50;;;;;;5065794;28;20047;-76
2023/10/09 12:51:17;;;;;;;9.23;2.90;;;27.70;54.10;;;;;;5045474;28;20064;-77
2023/10/09 12:53:48;;;;;;;6.32;3.05;;;27.80;54.30;;;;;;5064671;28;20440;-75
2023/10/09 12:56:18;;;;;;;6.47;2.78;;;27.50;55.10;;;;;;5066387;28;20091;-76
2023/10/09 12:58:52;;;;;;;9.80;4.50;;;27.60;54.20;;;;;;5049660;28;20033;-76
2023/10/09 13:01:20;;;;;;;7.88;3.28;;;28.10;53.60;;;;;;5062016;28;20036;-75
2023/10/09 13:03:49;;;;;;;8.68;3.33;;;28.10;53.80;;;;;;5069101;28;20036;-76
2023/10/09 13:06:23;;;;;;;7.97;3.10;;;28.10;53.70;;;;;;5064230;28;20476;-74
2023/10/09 13:09:08;;;;;;;7.72;3.42;;;27.90;53.20;;;;;;5066000;28;20055;-75
2023/10/09 13:11:37;;;;;;;5.60;3.03;;;28.10;53.60;;;;;;5049933;28;20086;-76
2023/10/09 13:14:21;;;;;;;7.57;3.33;;;28.50;53.10;;;;;;5067324;28;20037;-75
2023/10/09 13:16:52;;;;;;;7.22;3.10;;;29.00;53.80;;;;;;5046799;28;20045;-74
2023/10/09 13:19:24;;;;;;;10.18;3.22;;;29.20;52.40;;;;;;5045755;28;20484;-75
2023/10/09 13:21:51;;;;;;;6.38;2.78;;;28.60;53.00;;;;;;5065809;28;20036;-76
2023/10/09 13:24:24;;;;;;;5.68;2.60;;;28.80;52.10;;;;;;5036422;28;20044;-74
2023/10/09 13:26:53;;;;;;;6.72;2.78;;;29.00;52.20;;;;;;5066553;28;20040;-75
2023/10/09 13:29:22;;;;;;;4.85;2.70;;;29.00;52.00;;;;;;5061264;28;20118;-77
2023/10/09 13:31:57;;;;;;;6.00;2.95;;;28.80;52.20;;;;;;5068395;28;20124;-77
2023/10/09 13:34:28;;;;;;;10.95;4.57;;;29.20;52.10;;;;;;5047876;28;20052;-79
2023/10/09 13:36:59;;;;;;;12.10;6.35;;;29.70;51.40;;;;;;5070376;28;20040;-77
2023/10/09 13:39:28;;;;;;;11.60;5.53;;;29.90;51.00;;;;;;5069090;28;20044;-76
2023/10/09 13:42:06;;;;;;;6.07;3.20;;;30.00;52.40;;;;;;5061966;28;20082;-77
2023/10/09 13:44:36;;;;;;;6.95;2.83;;;30.30;50.70;;;;;;5085400;28;20127;-77
2023/10/09 13:47:18;;;;;;;10.13;5.60;;;30.30;50.30;;;;;;5081710;28;20599;-74
2023/10/09 13:49:52;;;;;;;10.80;6.38;;;31.30;50.40;;;;;;5082883;28;20032;-78
2023/10/09 13:52:21;;;;;;;6.55;3.13;;;33.90;48.50;;;;;;5069341;28;20024;-76
2023/10/09 13:54:50;;;;;;;7.78;2.83;;;35.90;45.70;;;;;;5086970;28;20052;-74
2023/10/09 13:57:22;;;;;;;9.75;3.10;;;36.90;43.80;;;;;;5066938;28;20032;-74
2023/10/09 13:59:50;;;;;;;7.15;3.10;;;37.10;42.60;;;;;;5081476;28;20048;-75
2023/10/09 14:02:21;;;;;;;10.70;3.20;;;37.50;42.50;;;;;;5089337;28;20036;-75
2023/10/09 14:04:52;;;;;;;7.93;3.10;;;37.70;42.20;;;;;;5089176;28;20119;-75
2023/10/09 14:07:20;;;;;;;5.68;2.78;;;37.70;41.10;;;;;;5089247;28;20039;-77
2023/10/09 14:09:55;;;;;;;7.00;3.28;;;38.20;41.80;;;;;;5088879;28;20130;-78
2023/10/09 14:12:29;;;;;;;7.20;2.50;;;37.80;40.70;;;;;;5085260;28;20599;-75
2023/10/09 14:14:57;;;;;;;6.25;3.00;;;37.40;40.50;;;;;;5083791;28;20044;-77
2023/10/09 14:17:25;;;;;;;8.75;2.83;;;37.30;40.40;;;;;;5077264;28;20048;-76
2023/10/09 14:19:54;;;;;;;7.45;2.67;;;37.70;40.80;;;;;;5064830;28;20048;-78
2023/10/09 14:22:24;;;;;;;6.80;2.38;;;36.80;40.20;;;;;;5049656;28;20048;-77
2023/10/09 14:25:15;;;;;;;6.07;2.63;;;36.60;40.90;;;;;;5082521;28;20035;-78
2023/10/09 14:27:44;;;;;;;5.93;2.60;;;36.90;40.90;;;;;;5084304;28;20490;-81
2023/10/09 14:30:30;;;;;;;9.30;2.83;;;36.70;40.50;;;;;;5055366;28;20036;-77
2023/10/09 14:33:01;;;;;;;8.43;2.38;;;36.50;40.60;;;;;;5085947;28;20044;-76
2023/10/09 14:35:46;;;;;;;6.80;2.50;;;36.50;40.40;;;;;;5082100;28;20032;-77
2023/10/09 14:38:15;;;;;;;6.30;2.40;;;36.10;40.60;;;;;;5087457;28;20039;-79
2023/10/09 14:40:43;;;;;;;7.47;2.60;;;36.10;40.80;;;;;;5081294;28;20072;-76
2023/10/09 14:43:22;;;;;;;7.15;2.63;;;35.90;40.70;;;;;;5050441;28;20063;-76
2023/10/09 14:45:49;;;;;;;5.85;2.45;;;35.70;40.90;;;;;;5070797;28;20064;-77
2023/10/09 14:48:25;;;;;;;6.63;2.80;;;35.80;41.40;;;;;;5067539;28;20051;-78
2023/10/09 14:50:53;;;;;;;8.00;2.20;;;34.70;42.20;;;;;;5088227;28;20032;-77
2023/10/09 14:53:22;;;;;;;6.45;2.75;;;33.80;42.50;;;;;;5085071;28;20392;-78
2023/10/09 14:56:03;;;;;;;7.72;2.47;;;33.60;42.30;;;;;;5084643;28;20075;-79
2023/10/09 14:58:34;;;;;;;10.02;2.08;;;33.80;42.10;;;;;;5067759;28;20059;-77
2023/10/09 15:01:12;;;;;;;6.32;2.60;;;33.80;42.40;;;;;;5068493;28;20457;-76
2023/10/09 15:03:40;;;;;;;7.00;2.45;;;33.60;43.30;;;;;;5083730;28;20111;-79
2023/10/09 15:06:08;;;;;;;5.65;2.95;;;33.10;43.70;;;;;;5081584;28;20141;-79
2023/10/09 15:08:35;;;;;;;7.30;2.35;;;32.60;44.20;;;;;;5058520;28;20028;-78
2023/10/09 15:11:03;;;;;;;5.97;2.17;;;32.80;43.80;;;;;;5074598;28;20040;-79
2023/10/09 15:13:30;;;;;;;6.75;2.78;;;32.50;43.50;;;;;;5086560;28;20063;-79
2023/10/09 15:15:58;;;;;;;7.25;2.67;;;32.30;44.00;;;;;;5070617;28;20078;-79
2023/10/09 15:18:43;;;;;;;5.70;2.33;;;31.80;44.20;;;;;;5058483;28;20080;-77
2023/10/09 15:21:10;;;;;;;6.97;3.20;;;30.50;45.10;;;;;;5088201;28;20032;-78
2023/10/09 15:23:38;;;;;;;7.00;3.08;;;29.80;46.60;;;;;;5082084;28;20044;-77
2023/10/09 15:26:06;;;;;;;6.95;3.00;;;29.70;46.50;;;;;;5062711;28;20098;-78
2023/10/09 15:28:34;;;;;;;7.03;2.83;;;29.40;46.80;;;;;;5074501;28;20039;-76
2023/10/09 15:31:03;;;;;;;8.60;3.22;;;29.10;47.80;;;;;;5091595;28;20031;-78
2023/10/09 15:33:31;;;;;;;9.47;2.97;;;28.60;48.50;;;;;;5070488;28;20409;-78
2023/10/09 15:36:13;;;;;;;6.30;2.40;;;28.40;48.70;;;;;;5091905;28;20032;-78
2023/10/09 15:38:41;;;;;;;6.88;2.88;;;27.80;49.30;;;;;;5091715;28;20071;-79
2023/10/09 15:41:08;;;;;;;7.38;3.30;;;27.30;50.30;;;;;;5093067;28;20051;-78